createdAt,value
2017-09-29T00:01:56.168Z,92.70
2017-09-29T00:04:25.271Z,92.90
2017-09-29T00:06:53.954Z,92.90
2017-09-29T00:09:23.388Z,92.90
2017-09-29T00:11:51.870Z,92.90
2017-09-29T00:14:20.731Z,92.90
2017-09-29T00:16:49.115Z,92.70
2017-09-29T00:19:17.515Z,92.70
2017-09-29T00:21:45.920Z,92.40
2017-09-29T00:24:14.303Z,92.50
2017-09-29T00:26:43.407Z,92.40
2017-09-29T00:29:11.786Z,92.30
2017-09-29T00:31:40.168Z,92.70
2017-09-29T00:34:08.635Z,92.80
2017-09-29T00:36:37.861Z,92.80
2017-09-29T00:39:06.244Z,92.80
2017-09-29T00:41:34.668Z,92.80
2017-09-29T00:44:03.709Z,92.90
2017-09-29T00:46:32.171Z,93.10
2017-09-29T00:49:00.544Z,93.20
2017-09-29T00:51:28.939Z,93.00
2017-09-29T00:53:57.384Z,93.00
2017-09-29T00:56:26.536Z,93.10
2017-09-29T00:58:54.984Z,93.10
2017-09-29T01:01:23.375Z,93.00
2017-09-29T01:03:51.750Z,93.30
2017-09-29T01:06:20.171Z,93.20
2017-09-29T01:08:48.553Z,93.50
2017-09-29T01:11:17.112Z,93.50
2017-09-29T01:13:45.491Z,93.40
2017-09-29T01:16:13.891Z,93.20
2017-09-29T01:18:42.318Z,93.60
2017-09-29T01:21:10.699Z,93.80
2017-09-29T01:23:39.155Z,93.80
2017-09-29T01:26:08.303Z,93.40
2017-09-29T01:28:36.698Z,93.40
2017-09-29T01:31:05.111Z,93.40
2017-09-29T01:33:34.278Z,94.00
2017-09-29T01:36:02.739Z,94.00
2017-09-29T01:38:31.135Z,94.30
2017-09-29T01:40:59.523Z,94.30
2017-09-29T01:43:27.929Z,94.30
2017-09-29T01:45:57.112Z,94.50
2017-09-29T01:48:25.602Z,94.50
2017-09-29T01:50:54.758Z,94.40
2017-09-29T01:53:23.158Z,94.40
2017-09-29T01:55:51.562Z,94.50
2017-09-29T01:58:20.875Z,94.60
2017-09-29T02:00:49.494Z,94.50
2017-09-29T02:03:17.903Z,94.50
2017-09-29T02:05:46.297Z,94.60
2017-09-29T02:08:15.483Z,94.00
2017-09-29T02:10:43.905Z,93.90
2017-09-29T02:13:12.505Z,94.20
2017-09-29T02:15:40.932Z,94.00
2017-09-29T02:18:10.134Z,94.20
2017-09-29T02:20:39.318Z,94.20
2017-09-29T02:23:07.711Z,94.20
2017-09-29T02:25:36.907Z,94.30
2017-09-29T02:28:06.107Z,94.30
2017-09-29T02:30:35.270Z,94.60
2017-09-29T02:33:03.691Z,94.60
2017-09-29T02:35:32.855Z,93.90
2017-09-29T02:38:01.517Z,94.00
2017-09-29T02:40:29.932Z,94.00
2017-09-29T02:42:58.323Z,94.50
2017-09-29T02:45:27.503Z,93.80
2017-09-29T02:47:55.899Z,93.80
2017-09-29T02:50:25.251Z,93.70
2017-09-29T02:52:53.650Z,93.60
2017-09-29T02:55:22.036Z,93.30
2017-09-29T02:57:53.931Z,93.50
2017-09-29T03:00:28.247Z,94.10
2017-09-29T03:03:01.619Z,94.30
2017-09-29T03:05:35.717Z,93.90
2017-09-29T03:08:04.947Z,93.90
2017-09-29T03:10:34.659Z,93.50
2017-09-29T03:13:04.508Z,93.30
2017-09-29T03:15:32.906Z,93.30
2017-09-29T03:18:02.056Z,93.30
2017-09-29T03:20:31.245Z,93.80
2017-09-29T03:23:00.279Z,93.30
2017-09-29T03:25:29.734Z,93.50
2017-09-29T03:27:59.414Z,93.00
2017-09-29T03:30:28.290Z,93.00
2017-09-29T03:32:57.070Z,93.10
2017-09-29T03:35:25.478Z,93.70
2017-09-29T03:37:53.928Z,93.50
2017-09-29T03:40:22.746Z,93.50
2017-09-29T03:42:51.913Z,93.60
2017-09-29T03:45:20.328Z,93.60
2017-09-29T03:47:48.747Z,94.10
2017-09-29T03:50:23.510Z,93.60
2017-09-29T03:52:55.620Z,93.70
2017-09-29T03:55:32.087Z,93.70
2017-09-29T03:58:03.519Z,93.70
2017-09-29T04:00:31.967Z,94.00
2017-09-29T04:03:00.375Z,94.40
2017-09-29T04:05:28.780Z,94.30
2017-09-29T04:07:57.237Z,94.70
2017-09-29T04:10:25.889Z,94.50
2017-09-29T04:12:54.350Z,94.30
2017-09-29T04:15:22.751Z,93.80
2017-09-29T04:17:51.188Z,93.70
2017-09-29T04:20:19.609Z,93.70
2017-09-29T04:22:48.098Z,93.90
2017-09-29T04:25:16.572Z,93.70
2017-09-29T04:27:45.013Z,93.80
2017-09-29T04:30:13.465Z,93.60
2017-09-29T04:32:41.901Z,93.70
2017-09-29T04:35:10.282Z,93.70
2017-09-29T04:37:38.659Z,93.30
2017-09-29T04:40:07.142Z,93.40
2017-09-29T04:42:35.543Z,93.40
2017-09-29T04:45:03.934Z,93.20
2017-09-29T04:47:32.378Z,92.90
2017-09-29T04:50:00.759Z,93.00
2017-09-29T04:52:29.170Z,92.90
2017-09-29T04:54:58.536Z,92.80
2017-09-29T04:57:26.930Z,92.80
2017-09-29T04:59:55.311Z,92.90
2017-09-29T05:02:23.729Z,92.70
2017-09-29T05:04:52.889Z,92.80
2017-09-29T05:07:21.271Z,92.80
2017-09-29T05:09:49.785Z,92.80
2017-09-29T05:12:18.180Z,92.80
2017-09-29T05:14:46.595Z,92.90
2017-09-29T05:17:15.027Z,93.00
2017-09-29T05:19:44.172Z,92.50
2017-09-29T05:22:12.546Z,92.40
2017-09-29T05:24:40.954Z,92.40
2017-09-29T05:27:09.349Z,92.00
2017-09-29T05:29:38.505Z,92.40
2017-09-29T05:32:06.927Z,92.40
2017-09-29T05:34:36.205Z,92.50
2017-09-29T05:37:05.371Z,92.40
2017-09-29T05:39:33.799Z,92.40
2017-09-29T05:42:02.984Z,92.10
2017-09-29T05:44:31.363Z,92.00
2017-09-29T05:47:00.004Z,91.10
2017-09-29T05:49:28.390Z,90.00
2017-09-29T05:51:56.776Z,88.30
2017-09-29T05:54:25.187Z,85.80
2017-09-29T05:56:54.339Z,83.50
2017-09-29T05:59:22.723Z,82.60
2017-09-29T06:01:51.155Z,81.50
2017-09-29T06:04:20.334Z,82.50
2017-09-29T06:06:48.723Z,82.40
2017-09-29T06:09:17.914Z,78.80
2017-09-29T06:11:46.367Z,78.70
2017-09-29T06:14:14.742Z,76.60
2017-09-29T06:16:43.156Z,73.20
2017-09-29T06:19:12.316Z,69.00
2017-09-29T06:21:40.700Z,68.90
2017-09-29T06:24:09.158Z,67.60
2017-09-29T06:26:38.279Z,66.00
2017-09-29T06:29:06.661Z,64.00
2017-09-29T06:31:35.080Z,62.60
2017-09-29T06:34:03.464Z,62.00
2017-09-29T06:36:31.848Z,62.10
2017-09-29T06:39:00.267Z,60.60
2017-09-29T06:41:28.650Z,59.00
2017-09-29T06:43:57.041Z,57.70
2017-09-29T06:46:25.463Z,57.20
2017-09-29T06:48:53.844Z,56.10
2017-09-29T06:51:22.251Z,55.30
2017-09-29T06:53:50.675Z,56.00
2017-09-29T06:56:19.823Z,58.30
2017-09-29T06:58:48.207Z,58.20
2017-09-29T07:01:16.628Z,59.90
2017-09-29T07:03:45.778Z,62.30
2017-09-29T07:06:14.159Z,62.30
2017-09-29T07:08:42.585Z,67.20
2017-09-29T07:11:11.734Z,67.60
2017-09-29T07:13:40.134Z,67.40
2017-09-29T07:16:09.311Z,67.00
2017-09-29T07:18:37.692Z,66.90
2017-09-29T07:21:06.088Z,67.10
2017-09-29T07:23:34.502Z,66.90
2017-09-29T07:26:14.816Z,69.60
2017-09-29T07:29:07.539Z,68.90
2017-09-29T07:31:57.210Z,70.30
2017-09-29T07:34:42.068Z,71.00
2017-09-29T07:37:30.559Z,72.70
2017-09-29T07:40:17.719Z,70.70
2017-09-29T07:42:47.223Z,70.70
2017-09-29T07:45:15.612Z,71.30
2017-09-29T07:47:44.322Z,70.80
2017-09-29T07:50:12.704Z,69.20
2017-09-29T07:52:41.088Z,67.90
2017-09-29T07:55:09.498Z,66.40
2017-09-29T07:57:41.483Z,63.80
2017-09-29T08:00:11.989Z,63.70
2017-09-29T08:02:42.777Z,63.10
2017-09-29T08:05:16.465Z,62.30
2017-09-29T08:08:04.519Z,61.80
2017-09-29T08:10:41.532Z,60.10
2017-09-29T08:13:11.145Z,57.20
2017-09-29T08:15:40.076Z,54.60
2017-09-29T08:18:08.696Z,53.60
2017-09-29T08:20:37.397Z,51.80
2017-09-29T08:23:06.595Z,54.30
2017-09-29T08:25:34.968Z,54.30
2017-09-29T08:28:03.534Z,56.90
2017-09-29T08:30:31.908Z,57.10
2017-09-29T08:33:00.283Z,58.80
2017-09-29T08:35:28.687Z,59.80
2017-09-29T08:37:57.385Z,59.80
2017-09-29T08:40:26.037Z,60.10
2017-09-29T08:42:54.416Z,61.30
2017-09-29T08:45:22.807Z,62.30
2017-09-29T08:47:51.208Z,63.10
2017-09-29T08:50:19.591Z,64.30
2017-09-29T08:52:48.339Z,64.70
2017-09-29T08:55:16.714Z,63.40
2017-09-29T08:57:45.096Z,62.70
2017-09-29T09:00:13.563Z,61.80
2017-09-29T09:02:41.943Z,59.90
2017-09-29T09:05:10.367Z,58.20
2017-09-29T09:07:38.739Z,56.40
2017-09-29T09:10:07.119Z,54.70
2017-09-29T09:12:35.525Z,53.50
2017-09-29T09:15:04.669Z,53.70
2017-09-29T09:17:33.139Z,53.60
2017-09-29T09:20:01.515Z,53.60
2017-09-29T09:22:29.896Z,52.20
2017-09-29T09:24:58.291Z,51.90
2017-09-29T09:27:26.664Z,51.70
2017-09-29T09:29:55.102Z,52.20
2017-09-29T09:32:24.318Z,51.10
2017-09-29T09:34:52.699Z,51.10
2017-09-29T09:37:21.335Z,51.10
2017-09-29T09:39:49.844Z,51.80
2017-09-29T09:42:19.066Z,49.40
2017-09-29T09:44:47.455Z,49.40
2017-09-29T09:47:15.836Z,47.00
2017-09-29T09:49:44.231Z,45.30
2017-09-29T09:52:12.613Z,43.50
2017-09-29T09:54:41.278Z,42.30
2017-09-29T09:57:09.662Z,40.80
2017-09-29T09:59:38.046Z,40.60
2017-09-29T10:02:06.548Z,40.50
2017-09-29T10:04:34.927Z,40.20
2017-09-29T10:07:03.320Z,39.20
2017-09-29T10:09:31.726Z,40.10
2017-09-29T10:12:00.152Z,41.50
2017-09-29T10:14:31.361Z,42.60
2017-09-29T10:16:59.881Z,42.00
2017-09-29T10:19:28.262Z,41.60
2017-09-29T10:21:56.639Z,42.10
2017-09-29T10:24:25.058Z,43.30
2017-09-29T10:26:54.215Z,45.00
2017-09-29T10:29:22.591Z,45.00
2017-09-29T10:31:51.003Z,44.70
2017-09-29T10:34:20.162Z,45.80
2017-09-29T10:36:48.551Z,45.70
2017-09-29T10:39:17.036Z,45.30
2017-09-29T10:41:45.420Z,45.00
2017-09-29T10:44:13.807Z,44.50
2017-09-29T10:46:42.219Z,43.20
2017-09-29T10:49:10.600Z,43.70
2017-09-29T10:51:38.993Z,44.70
2017-09-29T10:54:07.408Z,44.40
2017-09-29T10:56:35.800Z,46.30
2017-09-29T10:59:04.959Z,46.00
2017-09-29T11:01:33.387Z,46.00
2017-09-29T11:04:02.536Z,47.60
2017-09-29T11:06:30.940Z,47.50
2017-09-29T11:08:59.388Z,48.50
2017-09-29T11:11:27.768Z,48.80
2017-09-29T11:13:56.147Z,49.00
2017-09-29T11:16:24.570Z,49.30
2017-09-29T11:18:52.953Z,49.40
2017-09-29T11:21:22.172Z,50.00
2017-09-29T11:23:50.587Z,50.00
2017-09-29T11:26:18.987Z,49.00
2017-09-29T11:28:47.385Z,50.10
2017-09-29T11:31:15.815Z,52.40
2017-09-29T11:33:44.349Z,53.30
2017-09-29T11:36:13.499Z,54.10
2017-09-29T11:38:41.928Z,54.10
2017-09-29T11:41:11.099Z,56.40
2017-09-29T11:43:39.492Z,56.40
2017-09-29T11:46:07.944Z,56.80
2017-09-29T11:48:36.339Z,56.40
2017-09-29T11:51:04.727Z,56.20
2017-09-29T11:53:33.147Z,54.70
2017-09-29T11:56:01.539Z,53.90
2017-09-29T11:58:29.920Z,53.40
2017-09-29T12:00:58.331Z,54.10
2017-09-29T12:03:26.723Z,54.10
2017-09-29T12:05:55.103Z,54.40
2017-09-29T12:08:23.778Z,55.30
2017-09-29T12:10:52.160Z,56.90
2017-09-29T12:13:20.536Z,58.30
2017-09-29T12:15:48.962Z,58.90
2017-09-29T12:18:17.344Z,59.70
2017-09-29T12:20:45.722Z,60.50
2017-09-29T12:23:14.128Z,60.80
2017-09-29T12:25:42.559Z,60.00
2017-09-29T12:28:11.732Z,59.00
2017-09-29T12:30:40.145Z,58.30
2017-09-29T12:33:08.535Z,56.50
2017-09-29T12:35:36.916Z,56.10
2017-09-29T12:38:05.331Z,56.20
2017-09-29T12:40:33.711Z,54.90
2017-09-29T12:43:02.092Z,53.90
2017-09-29T12:45:30.539Z,53.90
2017-09-29T12:47:58.918Z,52.00
2017-09-29T12:50:27.302Z,51.30
2017-09-29T12:52:55.719Z,50.40
2017-09-29T12:55:24.115Z,48.90
2017-09-29T12:57:53.278Z,47.80
2017-09-29T13:00:21.736Z,48.30
2017-09-29T13:02:50.130Z,48.70
2017-09-29T13:05:18.514Z,50.10
2017-09-29T13:07:46.926Z,51.50
2017-09-29T13:10:16.092Z,53.80
2017-09-29T13:12:44.493Z,53.70
2017-09-29T13:15:12.932Z,53.70
2017-09-29T13:17:41.327Z,54.60
2017-09-29T13:20:09.721Z,55.60
2017-09-29T13:22:38.147Z,57.10
2017-09-29T13:25:06.523Z,58.10
2017-09-29T13:27:34.899Z,57.90
2017-09-29T13:30:03.321Z,58.30
2017-09-29T13:32:32.476Z,57.70
2017-09-29T13:35:00.869Z,57.70
2017-09-29T13:37:29.543Z,57.00
2017-09-29T13:39:57.933Z,57.20
2017-09-29T13:42:26.322Z,57.50
2017-09-29T13:44:55.524Z,57.50
2017-09-29T13:47:23.921Z,56.90
2017-09-29T13:49:52.339Z,57.20
2017-09-29T13:52:20.759Z,58.20
2017-09-29T13:54:49.183Z,58.80
2017-09-29T13:57:18.335Z,59.10
2017-09-29T13:59:46.768Z,59.10
2017-09-29T14:02:15.924Z,58.40
2017-09-29T14:04:44.371Z,58.30
2017-09-29T14:07:12.800Z,57.90
2017-09-29T14:09:41.179Z,57.30
2017-09-29T14:12:09.566Z,57.90
2017-09-29T14:14:37.991Z,58.90
2017-09-29T14:17:06.388Z,59.30
2017-09-29T14:19:34.801Z,60.50
2017-09-29T14:22:03.993Z,62.80
2017-09-29T14:24:32.375Z,62.80
2017-09-29T14:27:00.875Z,63.30
2017-09-29T14:29:30.072Z,64.40
2017-09-29T14:31:58.463Z,64.30
2017-09-29T14:34:26.867Z,65.30
2017-09-29T14:36:55.288Z,65.60
2017-09-29T14:39:23.777Z,66.40
2017-09-29T14:41:53.032Z,67.60
2017-09-29T14:44:21.515Z,67.50
2017-09-29T14:46:49.909Z,67.90
2017-09-29T14:49:18.312Z,67.50
2017-09-29T14:51:47.790Z,70.70
2017-09-29T14:54:16.272Z,70.70
2017-09-29T14:56:44.712Z,72.20
2017-09-29T14:59:13.128Z,74.10
2017-09-29T15:01:41.540Z,75.40
2017-09-29T15:04:10.758Z,78.10
2017-09-29T15:06:39.203Z,78.10
2017-09-29T15:09:07.595Z,79.80
2017-09-29T15:11:36.771Z,82.40
2017-09-29T15:14:05.302Z,82.40
2017-09-29T15:16:33.814Z,82.70
2017-09-29T15:19:02.234Z,84.70
2017-09-29T15:21:31.584Z,87.60
2017-09-29T15:24:00.060Z,87.70
2017-09-29T15:26:28.519Z,87.70
2017-09-29T15:28:56.948Z,88.30
2017-09-29T15:31:25.410Z,88.30
2017-09-29T15:33:53.796Z,88.50
2017-09-29T15:36:22.260Z,88.90
2017-09-29T15:38:50.888Z,89.60
2017-09-29T15:41:19.280Z,90.00
2017-09-29T15:43:48.487Z,89.80
2017-09-29T15:46:17.009Z,89.80
2017-09-29T15:48:46.247Z,89.60
2017-09-29T15:51:14.731Z,89.70
2017-09-29T15:53:43.904Z,89.10
2017-09-29T15:56:12.325Z,89.10
2017-09-29T15:58:40.785Z,88.50
2017-09-29T16:01:10.691Z,89.70
2017-09-29T16:03:39.122Z,89.70
2017-09-29T16:06:07.778Z,90.00
2017-09-29T16:08:36.978Z,90.70
2017-09-29T16:11:06.221Z,90.90
2017-09-29T16:13:34.681Z,90.90
2017-09-29T16:16:03.063Z,90.90
2017-09-29T16:18:31.471Z,90.80
2017-09-29T16:20:59.899Z,91.10
2017-09-29T16:23:28.352Z,91.20
2017-09-29T16:25:56.915Z,90.90
2017-09-29T16:28:26.159Z,90.50
2017-09-29T16:30:54.543Z,90.70
2017-09-29T16:33:22.927Z,90.60
2017-09-29T16:35:51.395Z,90.60
2017-09-29T16:38:20.543Z,91.40
2017-09-29T16:40:48.932Z,91.40
2017-09-29T16:43:17.354Z,91.50
2017-09-29T16:45:45.816Z,91.60
2017-09-29T16:48:15.073Z,92.20
2017-09-29T16:50:43.521Z,92.20
2017-09-29T16:53:11.914Z,92.50
2017-09-29T16:55:40.517Z,92.30
2017-09-29T16:58:08.968Z,92.70
2017-09-29T17:00:37.358Z,92.80
2017-09-29T17:03:05.931Z,92.90
2017-09-29T17:05:34.434Z,92.80
2017-09-29T17:08:02.827Z,92.80
2017-09-29T17:10:31.211Z,92.80
2017-09-29T17:12:59.803Z,92.80
2017-09-29T17:15:28.202Z,92.90
2017-09-29T17:17:57.363Z,93.30
2017-09-29T17:20:25.779Z,93.30
2017-09-29T17:22:54.983Z,93.50
2017-09-29T17:25:24.147Z,93.60
2017-09-29T17:27:52.758Z,93.50
2017-09-29T17:30:21.928Z,93.60
2017-09-29T17:32:51.327Z,93.60
2017-09-29T17:35:20.115Z,94.10
2017-09-29T17:37:48.810Z,94.20
2017-09-29T17:40:17.466Z,94.30
2017-09-29T17:42:46.001Z,94.30
2017-09-29T17:45:15.164Z,94.10
2017-09-29T17:47:43.675Z,94.00
2017-09-29T17:50:12.862Z,94.10
2017-09-29T17:52:41.243Z,94.10
2017-09-29T17:55:10.409Z,94.30
2017-09-29T17:57:38.822Z,94.30
2017-09-29T18:00:07.976Z,94.80
2017-09-29T18:02:36.366Z,94.70
2017-09-29T18:05:04.787Z,94.80
2017-09-29T18:07:33.934Z,94.90
2017-09-29T18:10:02.342Z,94.90
2017-09-29T18:12:30.793Z,94.80
2017-09-29T18:14:59.172Z,94.70
2017-09-29T18:17:27.564Z,94.50
2017-09-29T18:19:56.846Z,94.60
2017-09-29T18:22:25.230Z,94.50
2017-09-29T18:24:53.611Z,94.50
2017-09-29T18:27:22.030Z,94.60
2017-09-29T18:29:51.195Z,94.50
2017-09-29T18:32:19.591Z,94.40
2017-09-29T18:34:48.041Z,94.70
2017-09-29T18:37:16.441Z,94.90
2017-09-29T18:39:44.873Z,94.80
2017-09-29T18:42:13.319Z,94.60
2017-09-29T18:44:50.871Z,94.80
2017-09-29T18:47:19.782Z,94.70
2017-09-29T18:49:48.175Z,94.60
2017-09-29T18:52:16.563Z,94.80
2017-09-29T18:54:45.762Z,94.60
2017-09-29T18:57:14.927Z,94.60
2017-09-29T18:59:43.315Z,94.60
2017-09-29T19:02:11.760Z,94.60
2017-09-29T19:04:40.158Z,94.50
2017-09-29T19:07:08.541Z,94.40
2017-09-29T19:09:37.212Z,94.30
2017-09-29T19:12:05.666Z,94.70
2017-09-29T19:14:34.054Z,94.40
2017-09-29T19:17:02.496Z,94.30
2017-09-29T19:19:31.652Z,93.70
2017-09-29T19:22:00.042Z,93.70
2017-09-29T19:24:28.464Z,94.40
2017-09-29T19:26:56.857Z,94.40
2017-09-29T19:29:25.241Z,94.60
2017-09-29T19:31:53.660Z,94.70
2017-09-29T19:34:22.047Z,94.80
2017-09-29T19:36:50.431Z,94.60
2017-09-29T19:39:18.875Z,94.40
2017-09-29T19:41:47.357Z,94.40
2017-09-29T19:44:15.757Z,94.60
2017-09-29T19:46:44.171Z,94.40
2017-09-29T19:49:13.333Z,94.50
2017-09-29T19:51:41.765Z,94.50
2017-09-29T19:54:10.583Z,94.20
2017-09-29T19:56:40.342Z,93.50
2017-09-29T19:59:09.548Z,93.40
2017-09-29T20:01:38.020Z,93.40
2017-09-29T20:04:07.158Z,93.60
2017-09-29T20:06:35.544Z,93.60
2017-09-29T20:09:03.986Z,93.70
2017-09-29T20:11:32.697Z,93.70
2017-09-29T20:14:01.110Z,93.40
2017-09-29T20:16:29.665Z,93.70
2017-09-29T20:18:58.079Z,93.70
2017-09-29T20:21:26.487Z,93.70
2017-09-29T20:23:56.020Z,94.00
2017-09-29T20:26:24.414Z,93.80
2017-09-29T20:28:52.802Z,93.90
2017-09-29T20:31:21.290Z,94.00
2017-09-29T20:33:49.698Z,94.00
2017-09-29T20:36:18.890Z,94.00
2017-09-29T20:38:48.235Z,94.10
2017-09-29T20:41:16.818Z,94.10
2017-09-29T20:43:45.284Z,94.00
2017-09-29T20:46:13.807Z,94.20
2017-09-29T20:48:42.206Z,94.30
2017-09-29T20:51:11.065Z,94.40
2017-09-29T20:53:39.583Z,94.50
2017-09-29T20:56:08.740Z,94.60
2017-09-29T20:58:37.707Z,94.60
2017-09-29T21:01:06.315Z,94.50
2017-09-29T21:03:34.859Z,94.40
2017-09-29T21:06:03.832Z,94.40
2017-09-29T21:08:32.632Z,94.50
2017-09-29T21:11:01.878Z,94.60
2017-09-29T21:13:30.307Z,94.50
2017-09-29T21:15:59.554Z,94.70
2017-09-29T21:18:28.755Z,94.60
2017-09-29T21:20:57.135Z,94.60
2017-09-29T21:23:25.565Z,94.50
2017-09-29T21:25:54.733Z,94.50
2017-09-29T21:28:23.115Z,94.60
2017-09-29T21:30:51.799Z,94.70
2017-09-29T21:33:20.179Z,94.70
2017-09-29T21:35:48.839Z,94.70
2017-09-29T21:38:17.314Z,94.60
2017-09-29T21:40:45.840Z,94.60
2017-09-29T21:43:14.991Z,94.70
2017-09-29T21:45:43.418Z,94.70
2017-09-29T21:48:12.565Z,94.90
2017-09-29T21:50:40.945Z,94.80
2017-09-29T21:53:09.387Z,94.90
2017-09-29T21:55:38.547Z,95.10
2017-09-29T21:58:06.978Z,95.10
2017-09-29T22:00:35.582Z,95.00
2017-09-29T22:03:03.967Z,95.00
2017-09-29T22:05:32.351Z,95.10
2017-09-29T22:08:00.760Z,95.00
2017-09-29T22:10:29.137Z,95.10
2017-09-29T22:12:58.303Z,95.30
2017-09-29T22:15:26.974Z,95.30
2017-09-29T22:17:55.367Z,95.20
2017-09-29T22:20:23.757Z,95.10
2017-09-29T22:22:52.183Z,95.10
2017-09-29T22:25:20.600Z,95.20
2017-09-29T22:27:49.774Z,95.10
2017-09-29T22:30:18.208Z,95.10
2017-09-29T22:32:46.593Z,95.20
2017-09-29T22:35:14.972Z,95.20
2017-09-29T22:37:43.605Z,95.30
2017-09-29T22:40:11.991Z,95.30
2017-09-29T22:42:40.367Z,95.40
2017-09-29T22:45:08.799Z,95.30
2017-09-29T22:47:37.958Z,95.50
2017-09-29T22:50:06.340Z,95.60
2017-09-29T22:52:34.755Z,95.60
2017-09-29T22:55:03.899Z,95.90
2017-09-29T22:57:32.275Z,95.90
2017-09-29T23:00:00.695Z,96.10
2017-09-29T23:02:29.081Z,96.10
2017-09-29T23:04:58.233Z,96.30
2017-09-29T23:07:26.643Z,96.30
2017-09-29T23:09:55.025Z,96.20
2017-09-29T23:12:23.412Z,96.20
2017-09-29T23:14:51.827Z,96.20
2017-09-29T23:17:20.207Z,96.40
2017-09-29T23:19:48.590Z,96.10
2017-09-29T23:22:17.003Z,96.10
2017-09-29T23:24:45.387Z,96.10
2017-09-29T23:27:13.767Z,96.10
2017-09-29T23:29:42.188Z,95.90
2017-09-29T23:32:10.590Z,95.90
2017-09-29T23:34:38.970Z,96.10
2017-09-29T23:37:07.410Z,95.90
2017-09-29T23:39:36.866Z,96.10
2017-09-29T23:42:05.242Z,96.10
2017-09-29T23:44:33.831Z,95.90
2017-09-29T23:47:02.207Z,95.90
2017-09-29T23:49:30.587Z,95.90
2017-09-29T23:51:59.032Z,95.80
2017-09-29T23:54:27.416Z,96.10
2017-09-29T23:56:55.794Z,95.80
2017-09-29T23:59:24.222Z,95.90
